Flight Track Log - Related Links

Times and Time Zones

All times are in EDT time to prevent confusion due to time zone crossing. See the BEE2115 flight status page for this flight to view local times or setup timezone preferences in your user account.

Time Position Orientation Groundspeed Altitude Reporting Facility
EDT Latitude Longitude Course Direction KTS MPH feet Rate Location/Type
Wed 01:35:00 PM 60.1875 24.9442 184° South  Level Estimated
Wed 01:36:00 PM 60.1442 24.9378 184° South  Level Estimated
Wed 01:37:00 PM 60.1009 24.9315 184° South  Level Estimated
Wed 01:38:00 PM 60.0577 24.9251 184° South  Level Estimated
Wed 01:39:00 PM 60.0144 24.9188 184° South  Level Estimated
Wed 01:40:00 PM 59.9711 24.9125 184° South  Level Estimated
Wed 01:41:00 PM 59.9279 24.9062 184° South  Level Estimated
Wed 01:42:00 PM 59.8846 24.9000 184° South  Level Estimated
Wed 01:43:00 PM 59.8414 24.8937 184° South  Level Estimated
Wed 01:44:00 PM 59.7981 24.8875 184° South  Level Estimated
Wed 01:45:00 PM 59.7548 24.8813 184° South  Level Estimated
Wed 01:46:00 PM 59.7116 24.8751 184° South  Level Estimated
Wed 01:47:00 PM 59.6683 24.8689 184° South  Level Estimated
Wed 01:48:00 PM 59.6251 24.8628 184° South  Level Estimated
Wed 01:49:00 PM 59.5818 24.8566 184° South  Level Estimated
Wed 01:50:00 PM 59.5386 24.8505 184° South  Level Estimated
Wed 01:51:00 PM 59.4953 24.8444 184° South  Level Estimated
Wed 01:52:00 PM 59.4520 24.8383 184° South  Level Estimated
Wed 01:53:00 PM 59.4133 24.8328 184° South  Level Estimated
Wed 01:54:00 PM 59.4133 24.8328 146° Southeast  Level Estimated
Wed 01:55:00 PM 59.4133 24.8328 146° Southeast  Level Estimated
Wed 01:56:00 PM 59.4133 24.8328 146° Southeast  Level Estimated
Wed 01:57:00 PM 59.4133 24.8328 146° Southeast  Level Estimated

Login

Don't have an account? Register now (free) for customized features, flight alerts, and more!